createdAt,value
2022-07-29T00:02:17.214Z,70.08
2022-07-29T00:04:49.418Z,70.40
2022-07-29T00:07:22.563Z,70.34
2022-07-29T00:09:54.845Z,70.40
2022-07-29T00:12:28.485Z,70.45
2022-07-29T00:15:02.025Z,70.45
2022-07-29T00:17:35.096Z,70.55
2022-07-29T00:20:09.518Z,70.68
2022-07-29T00:22:45.205Z,70.68
2022-07-29T00:25:17.603Z,70.60
2022-07-29T00:27:49.751Z,70.77
2022-07-29T00:30:23.282Z,70.64
2022-07-29T00:32:55.418Z,70.64
2022-07-29T00:35:46.040Z,70.78
2022-07-29T00:38:17.554Z,70.66
2022-07-29T00:40:50.300Z,70.84
2022-07-29T00:43:22.654Z,70.76
2022-07-29T00:45:55.067Z,70.94
2022-07-29T00:48:27.661Z,70.96
2022-07-29T00:51:02.095Z,71.01
2022-07-29T00:53:36.305Z,71.06
2022-07-29T00:56:09.185Z,71.07
2022-07-29T00:58:42.607Z,71.10
2022-07-29T01:01:14.864Z,71.09
2022-07-29T01:03:47.803Z,71.00
2022-07-29T01:06:21.247Z,71.25
2022-07-29T01:08:53.780Z,71.43
2022-07-29T01:11:26.276Z,71.42
2022-07-29T01:13:59.191Z,71.51
2022-07-29T01:16:39.802Z,71.41
2022-07-29T01:19:24.926Z,71.48
2022-07-29T01:22:00.337Z,71.52
2022-07-29T01:24:53.842Z,71.52
2022-07-29T01:27:40.752Z,71.48
2022-07-29T01:30:15.692Z,71.59
2022-07-29T01:32:55.021Z,71.45
2022-07-29T01:35:34.140Z,71.61
2022-07-29T01:38:14.777Z,71.63
2022-07-29T01:40:55.282Z,71.72
2022-07-29T01:43:36.685Z,71.79
2022-07-29T01:46:16.022Z,71.82
2022-07-29T01:48:54.472Z,72.01
2022-07-29T01:51:43.093Z,72.00
2022-07-29T01:54:21.943Z,72.06
2022-07-29T01:56:57.737Z,72.02
2022-07-29T01:59:35.889Z,72.30
2022-07-29T02:02:13.345Z,72.21
2022-07-29T02:04:49.593Z,72.32
2022-07-29T02:07:25.937Z,72.44
2022-07-29T02:09:59.340Z,72.46
2022-07-29T02:12:34.341Z,72.50
2022-07-29T02:15:10.882Z,72.56
2022-07-29T02:17:47.532Z,72.65
2022-07-29T02:20:20.279Z,72.49
2022-07-29T02:22:54.382Z,72.40
2022-07-29T02:25:37.059Z,72.51
2022-07-29T02:28:11.518Z,72.63
2022-07-29T02:30:46.375Z,72.56
2022-07-29T02:33:20.847Z,72.72
2022-07-29T02:35:54.431Z,72.80
2022-07-29T02:38:47.930Z,72.70
2022-07-29T02:41:25.106Z,72.74
2022-07-29T02:44:00.874Z,72.90
2022-07-29T02:46:36.781Z,72.93
2022-07-29T02:49:17.904Z,73.08
2022-07-29T02:51:55.238Z,73.13
2022-07-29T02:54:33.996Z,73.03
2022-07-29T02:57:17.016Z,73.33
2022-07-29T02:59:54.161Z,73.47
2022-07-29T03:02:29.206Z,73.33
2022-07-29T03:05:06.525Z,73.59
2022-07-29T03:07:41.000Z,73.34
2022-07-29T03:10:15.772Z,73.22
2022-07-29T03:12:48.874Z,73.27
2022-07-29T03:15:22.275Z,73.40
2022-07-29T03:17:57.949Z,73.43
2022-07-29T03:20:30.435Z,73.46
2022-07-29T03:23:04.136Z,73.35
2022-07-29T03:25:37.001Z,73.65
2022-07-29T03:28:09.777Z,73.63
2022-07-29T03:30:42.122Z,73.78
2022-07-29T03:33:17.450Z,73.69
2022-07-29T03:35:50.170Z,73.73
2022-07-29T03:38:26.269Z,73.70
2022-07-29T03:41:02.737Z,74.02
2022-07-29T03:43:38.764Z,73.89
2022-07-29T03:46:26.780Z,74.12
2022-07-29T03:49:02.200Z,74.04
2022-07-29T03:51:37.622Z,74.26
2022-07-29T03:54:10.795Z,74.38
2022-07-29T03:56:47.411Z,74.55
2022-07-29T03:59:20.900Z,74.36
2022-07-29T04:01:54.163Z,74.62
2022-07-29T04:04:27.321Z,74.67
2022-07-29T04:07:01.355Z,74.61
2022-07-29T04:09:33.686Z,74.82
2022-07-29T04:12:07.678Z,74.67
2022-07-29T04:14:40.233Z,75.02
2022-07-29T04:17:12.546Z,75.10
2022-07-29T04:19:44.694Z,75.07
2022-07-29T04:22:17.080Z,75.35
2022-07-29T04:24:49.334Z,75.23
2022-07-29T04:27:22.256Z,75.38
2022-07-29T04:29:56.843Z,75.44
2022-07-29T04:32:29.962Z,75.35
2022-07-29T04:35:02.932Z,75.38
2022-07-29T04:37:35.125Z,75.66
2022-07-29T04:40:09.310Z,75.59
2022-07-29T04:42:46.782Z,75.78
2022-07-29T04:45:22.496Z,75.85
2022-07-29T04:47:55.118Z,75.89
2022-07-29T04:50:28.274Z,75.88
2022-07-29T04:53:00.817Z,75.58
2022-07-29T04:55:33.134Z,75.71
2022-07-29T04:58:05.518Z,75.91
2022-07-29T05:00:37.956Z,75.83
2022-07-29T05:03:10.372Z,75.67
2022-07-29T05:05:43.310Z,75.49
2022-07-29T05:08:15.690Z,75.62
2022-07-29T05:10:48.060Z,75.67
2022-07-29T05:13:21.315Z,75.43
2022-07-29T05:15:53.741Z,75.06
2022-07-29T05:18:26.367Z,74.16
2022-07-29T05:20:58.930Z,73.98
2022-07-29T05:23:34.244Z,73.75
2022-07-29T05:26:06.540Z,73.32
2022-07-29T05:28:39.410Z,73.01
2022-07-29T05:31:11.724Z,73.16
2022-07-29T05:33:44.078Z,72.48
2022-07-29T05:36:19.488Z,71.69
2022-07-29T05:38:53.206Z,70.79
2022-07-29T05:41:26.027Z,70.71
2022-07-29T05:43:58.787Z,70.79
2022-07-29T05:46:31.600Z,69.80
2022-07-29T05:49:04.043Z,68.83
2022-07-29T05:51:36.935Z,68.88
2022-07-29T05:54:09.686Z,68.13
2022-07-29T05:56:41.796Z,67.06
2022-07-29T05:59:18.249Z,66.85
2022-07-29T06:01:50.655Z,66.72
2022-07-29T06:04:23.134Z,66.97
2022-07-29T06:06:55.552Z,66.05
2022-07-29T06:09:29.324Z,65.35
2022-07-29T06:12:01.790Z,65.05
2022-07-29T06:14:34.339Z,65.22
2022-07-29T06:17:06.913Z,64.07
2022-07-29T06:19:39.824Z,63.84
2022-07-29T06:22:11.981Z,61.48
2022-07-29T06:24:45.045Z,62.01
2022-07-29T06:27:17.492Z,61.29
2022-07-29T06:29:49.825Z,61.40
2022-07-29T06:32:22.909Z,61.09
2022-07-29T06:35:11.786Z,61.10
2022-07-29T06:37:48.894Z,59.78
2022-07-29T06:40:35.792Z,60.07
2022-07-29T06:43:09.826Z,59.81
2022-07-29T06:45:43.940Z,58.96
2022-07-29T09:09:17.615Z,52.91
2022-07-29T09:11:47.257Z,53.28
2022-07-29T09:14:16.417Z,53.02
2022-07-29T09:16:54.447Z,52.92
2022-07-29T09:19:28.739Z,52.34
2022-07-29T09:21:59.647Z,52.33
2022-07-29T09:24:39.221Z,52.48
2022-07-29T09:27:19.555Z,51.90
2022-07-29T09:29:47.433Z,51.75
2022-07-29T09:32:18.017Z,51.27
2022-07-29T09:34:49.274Z,51.45
2022-07-29T09:37:28.699Z,51.40
2022-07-29T09:39:58.108Z,51.88
2022-07-29T09:42:33.280Z,51.51
2022-07-29T09:45:02.971Z,50.94
2022-07-29T09:47:46.122Z,51.21
2022-07-29T09:50:15.415Z,50.75
2022-07-29T09:52:49.306Z,50.47
2022-07-29T09:55:19.967Z,49.71
2022-07-29T09:57:48.979Z,49.82
2022-07-29T10:00:19.729Z,50.75
2022-07-29T10:02:49.728Z,49.82
2022-07-29T10:05:20.975Z,50.39
2022-07-29T10:07:54.200Z,50.53
2022-07-29T10:10:25.498Z,50.03
2022-07-29T10:12:58.018Z,49.70
2022-07-29T10:15:32.371Z,49.96
2022-07-29T10:18:01.536Z,49.88
2022-07-29T10:20:31.121Z,49.97
2022-07-29T10:23:00.410Z,50.10
2022-07-29T10:25:29.486Z,49.62
2022-07-29T10:27:58.969Z,49.68
2022-07-29T10:30:28.347Z,50.08
2022-07-29T10:33:19.127Z,49.96
2022-07-29T10:36:12.900Z,50.10
2022-07-29T10:38:53.586Z,49.92
2022-07-29T10:41:44.390Z,49.79
2022-07-29T10:44:22.911Z,49.95
2022-07-29T10:46:56.827Z,49.51
2022-07-29T10:49:30.467Z,50.38
2022-07-29T10:52:05.858Z,49.39
2022-07-29T10:54:53.010Z,49.54
2022-07-29T10:57:52.571Z,49.35
2022-07-29T11:00:32.102Z,49.55
2022-07-29T11:03:04.386Z,49.80
2022-07-29T11:05:53.824Z,48.59
2022-07-29T11:08:27.726Z,48.67
2022-07-29T11:11:37.021Z,49.40
2022-07-29T11:14:10.193Z,49.35
2022-07-29T11:17:06.426Z,49.19
2022-07-29T11:19:40.172Z,49.49
2022-07-29T11:22:11.263Z,49.29
2022-07-29T11:24:50.155Z,49.66
2022-07-29T11:27:22.336Z,49.41
2022-07-29T11:29:56.325Z,49.92
2022-07-29T11:32:36.848Z,49.80
2022-07-29T11:35:18.984Z,49.92
2022-07-29T11:38:09.545Z,49.60
2022-07-29T11:40:40.218Z,49.58
2022-07-29T11:43:36.153Z,49.08
2022-07-29T11:46:10.151Z,49.30
2022-07-29T11:48:43.705Z,49.17
2022-07-29T11:51:15.325Z,49.53
2022-07-29T11:56:44.039Z,49.13
2022-07-29T11:59:15.125Z,49.21
2022-07-29T12:02:06.832Z,49.13
2022-07-29T12:04:51.536Z,49.16
2022-07-29T12:07:34.724Z,49.32
2022-07-29T12:10:06.288Z,49.22
2022-07-29T12:12:35.857Z,49.13
2022-07-29T12:15:18.053Z,49.42
2022-07-29T12:17:49.620Z,49.56
2022-07-29T12:20:25.346Z,49.51
2022-07-29T12:22:55.296Z,49.38
2022-07-29T12:25:33.750Z,49.42
2022-07-29T12:28:05.178Z,49.53
2022-07-29T12:30:40.253Z,49.34
2022-07-29T12:33:20.664Z,49.53
2022-07-29T12:36:06.142Z,49.60
2022-07-29T12:38:37.679Z,49.95
2022-07-29T12:41:06.698Z,49.73
2022-07-29T12:43:35.651Z,49.96
2022-07-29T12:46:15.276Z,49.97
2022-07-29T12:48:44.888Z,50.31
2022-07-29T12:51:15.242Z,50.17
2022-07-29T12:54:02.398Z,50.49
2022-07-29T12:56:46.554Z,50.63
2022-07-29T12:59:19.436Z,50.43
2022-07-29T13:12:15.564Z,53.64
2022-07-29T13:14:46.071Z,54.32
2022-07-29T13:17:17.007Z,55.42
2022-07-29T13:19:47.600Z,55.92
2022-07-29T13:22:18.459Z,56.85
2022-07-29T13:24:52.718Z,56.87
2022-07-29T13:27:24.082Z,56.94
2022-07-29T13:29:53.617Z,56.90
2022-07-29T13:32:28.788Z,57.38
2022-07-29T13:34:59.663Z,58.13
2022-07-29T13:37:29.946Z,58.87
2022-07-29T13:39:58.001Z,59.42
2022-07-29T13:42:27.426Z,60.19
2022-07-29T13:44:56.329Z,60.37
2022-07-29T13:47:32.834Z,61.02
2022-07-29T13:50:10.211Z,60.88
2022-07-29T13:52:39.147Z,61.42
2022-07-29T13:55:10.164Z,62.07
2022-07-29T13:57:39.171Z,62.30
2022-07-29T14:00:10.651Z,62.91
2022-07-29T14:02:39.462Z,62.49
2022-07-29T14:05:10.139Z,63.15
2022-07-29T14:07:39.500Z,63.34
2022-07-29T14:10:09.678Z,63.41
2022-07-29T14:12:38.630Z,63.89
2022-07-29T14:15:09.177Z,64.44
2022-07-29T14:17:37.998Z,64.43
2022-07-29T14:20:08.373Z,64.42
2022-07-29T14:22:42.345Z,64.71
2022-07-29T14:25:15.051Z,64.80
2022-07-29T14:27:44.647Z,65.12
2022-07-29T14:30:14.873Z,65.14
2022-07-29T14:32:43.646Z,65.50
2022-07-29T14:35:12.537Z,65.73
2022-07-29T14:37:42.119Z,66.03
2022-07-29T14:40:12.023Z,66.23
2022-07-29T14:42:41.033Z,66.11
2022-07-29T14:45:10.572Z,66.10
2022-07-29T14:47:40.109Z,66.14
2022-07-29T14:50:10.642Z,66.40
2022-07-29T14:52:39.800Z,66.63
2022-07-29T14:55:16.623Z,67.00
2022-07-29T14:57:48.561Z,67.25
2022-07-29T15:00:18.080Z,67.53
2022-07-29T15:03:02.019Z,67.77
2022-07-29T15:05:32.511Z,67.88
2022-07-29T15:08:01.610Z,67.81
2022-07-29T15:10:30.785Z,67.53
2022-07-29T15:12:59.556Z,67.66
2022-07-29T15:15:29.464Z,67.58
2022-07-29T15:17:58.323Z,67.92
2022-07-29T15:20:27.479Z,68.84
2022-07-29T15:22:56.649Z,69.48
2022-07-29T15:25:26.406Z,69.40
2022-07-29T15:28:01.271Z,69.24
2022-07-29T15:30:33.317Z,69.52
2022-07-29T15:33:04.226Z,69.63
2022-07-29T15:35:40.559Z,69.57
2022-07-29T15:38:09.858Z,68.96
2022-07-29T15:40:40.681Z,68.84
2022-07-29T15:43:09.540Z,68.86
2022-07-29T15:45:40.513Z,68.83
2022-07-29T15:48:14.568Z,69.04
2022-07-29T15:50:43.804Z,69.10
2022-07-29T15:53:16.071Z,68.90
2022-07-29T15:55:44.882Z,69.00
2022-07-29T15:58:16.972Z,69.21
2022-07-29T16:00:45.896Z,69.44
2022-07-29T16:03:15.617Z,69.68
2022-07-29T16:05:44.814Z,69.85
2022-07-29T16:08:13.636Z,69.75
2022-07-29T16:10:42.546Z,69.80
2022-07-29T16:13:11.280Z,69.86
2022-07-29T16:16:02.641Z,69.77
2022-07-29T16:18:32.652Z,70.04
2022-07-29T16:21:01.371Z,70.05
2022-07-29T16:23:30.165Z,70.01
2022-07-29T16:26:00.561Z,70.02
2022-07-29T16:28:30.840Z,70.06
2022-07-29T16:31:00.116Z,70.97
2022-07-29T16:33:29.017Z,71.28
2022-07-29T16:36:18.475Z,71.73
2022-07-29T16:38:48.069Z,71.97
2022-07-29T16:41:16.794Z,72.23
2022-07-29T16:43:45.761Z,72.51
2022-07-29T16:46:15.611Z,72.87
2022-07-29T16:48:49.031Z,73.07
2022-07-29T16:51:17.883Z,73.33
2022-07-29T16:53:50.344Z,73.37
2022-07-29T16:56:19.347Z,73.33
2022-07-29T16:58:48.222Z,73.76
2022-07-29T17:01:17.582Z,74.20
2022-07-29T17:04:04.862Z,74.21
2022-07-29T17:06:35.309Z,74.63
2022-07-29T17:09:06.397Z,74.74
2022-07-29T17:11:53.568Z,74.78
2022-07-29T17:14:25.263Z,74.92
2022-07-29T17:17:01.177Z,75.06
2022-07-29T17:19:31.989Z,75.50
2022-07-29T17:22:10.498Z,75.46
2022-07-29T17:24:41.977Z,75.73
2022-07-29T17:27:11.205Z,75.76
2022-07-29T17:29:40.285Z,76.08
2022-07-29T17:32:10.194Z,76.38
2022-07-29T17:34:41.071Z,76.72
2022-07-29T17:37:11.451Z,76.71
2022-07-29T17:39:42.050Z,76.83
2022-07-29T17:42:13.304Z,77.02
2022-07-29T17:44:42.490Z,77.08
2022-07-29T17:47:16.516Z,77.15
2022-07-29T17:49:46.657Z,77.43
2022-07-29T17:52:17.740Z,77.71
2022-07-29T17:54:48.595Z,77.81
2022-07-29T17:57:17.492Z,77.94
2022-07-29T17:59:46.283Z,78.27
2022-07-29T18:02:15.216Z,78.52
2022-07-29T18:04:44.136Z,78.83
2022-07-29T18:07:13.059Z,78.92
2022-07-29T18:09:41.931Z,79.15
2022-07-29T18:12:11.537Z,79.30
2022-07-29T18:14:40.579Z,79.43
2022-07-29T18:17:09.472Z,79.64
2022-07-29T18:19:38.297Z,79.56
2022-07-29T18:22:09.810Z,79.77
2022-07-29T18:24:39.109Z,80.01
2022-07-29T18:27:08.080Z,80.05
2022-07-29T18:29:37.194Z,80.02
2022-07-29T18:32:07.396Z,80.20
2022-07-29T18:34:36.592Z,80.23
2022-07-29T18:37:05.434Z,80.09
2022-07-29T18:39:35.478Z,79.48
2022-07-29T18:42:07.704Z,79.64
2022-07-29T18:44:43.595Z,79.48
2022-07-29T18:47:17.960Z,79.55
2022-07-29T18:49:46.994Z,79.48
2022-07-29T18:52:16.052Z,79.56
2022-07-29T18:54:45.234Z,79.54
2022-07-29T18:57:54.745Z,79.49
2022-07-29T19:00:10.377Z,79.36
2022-07-29T19:02:44.678Z,79.50
2022-07-29T19:05:16.759Z,79.10
2022-07-29T19:07:45.632Z,79.29
2022-07-29T19:10:14.822Z,79.12
2022-07-29T19:12:43.740Z,79.25
2022-07-29T19:15:12.849Z,79.46
2022-07-29T19:17:49.546Z,79.45
2022-07-29T19:20:18.417Z,79.41
2022-07-29T19:22:47.254Z,79.58
2022-07-29T19:25:16.380Z,79.39
2022-07-29T19:27:46.179Z,79.37
2022-07-29T19:30:15.401Z,79.72
2022-07-29T19:32:44.674Z,79.88
2022-07-29T19:35:31.012Z,79.80
2022-07-29T19:38:02.351Z,80.21
2022-07-29T19:40:32.570Z,80.30
2022-07-29T19:43:02.915Z,80.51
2022-07-29T19:45:52.303Z,80.68
2022-07-29T19:48:24.007Z,80.80
2022-07-29T19:50:54.954Z,80.82
2022-07-29T19:53:23.781Z,81.08
2022-07-29T19:55:53.124Z,81.00
2022-07-29T19:58:22.494Z,81.22
2022-07-29T20:00:57.804Z,81.33
2022-07-29T20:03:27.160Z,81.27
2022-07-29T20:05:55.988Z,81.41
2022-07-29T20:08:24.808Z,81.41
2022-07-29T20:10:55.446Z,81.65
2022-07-29T20:13:24.347Z,81.61
2022-07-29T20:15:53.294Z,81.67
2022-07-29T20:18:22.182Z,81.86
2022-07-29T20:20:55.554Z,81.92
2022-07-29T20:23:33.232Z,82.12
2022-07-29T20:26:08.719Z,82.31
2022-07-29T20:28:39.869Z,82.30
2022-07-29T20:31:15.139Z,82.32
2022-07-29T20:33:48.976Z,82.65
2022-07-29T20:36:23.233Z,82.95
2022-07-29T20:39:02.230Z,83.03
2022-07-29T20:41:51.814Z,83.03
2022-07-29T20:44:25.656Z,83.28
2022-07-29T20:47:00.687Z,83.54
2022-07-29T20:49:36.941Z,83.69
2022-07-29T20:52:09.526Z,83.73
2022-07-29T20:54:39.699Z,83.84
2022-07-29T20:57:08.536Z,84.05
2022-07-29T20:59:37.413Z,84.27
2022-07-29T21:02:06.308Z,84.17
2022-07-29T21:04:38.205Z,84.35
2022-07-29T21:07:06.972Z,84.53
2022-07-29T21:09:35.745Z,84.76
2022-07-29T21:12:05.725Z,84.95
2022-07-29T21:14:47.431Z,85.01
2022-07-29T21:17:18.889Z,85.02
2022-07-29T21:19:51.835Z,85.07
2022-07-29T21:22:23.438Z,85.30
2022-07-29T21:24:52.199Z,85.32
2022-07-29T21:27:39.162Z,85.32
2022-07-29T21:30:10.281Z,85.34
2022-07-29T21:32:39.151Z,85.41
2022-07-29T21:35:18.197Z,85.39
2022-07-29T21:38:01.036Z,85.51
2022-07-29T21:40:30.182Z,85.64
2022-07-29T21:42:59.052Z,85.86
2022-07-29T21:45:29.674Z,85.78
2022-07-29T21:47:58.456Z,86.03
2022-07-29T21:50:27.263Z,86.12
2022-07-29T21:52:56.093Z,86.10
2022-07-29T21:55:25.970Z,86.04
2022-07-29T21:57:56.734Z,86.13
2022-07-29T22:00:25.957Z,86.23
2022-07-29T22:02:57.330Z,86.21
2022-07-29T22:05:26.193Z,86.39
2022-07-29T22:07:57.030Z,86.36
2022-07-29T22:10:27.145Z,86.41
2022-07-29T22:12:57.722Z,86.57
2022-07-29T22:15:27.209Z,86.71
2022-07-29T22:17:56.063Z,86.77
2022-07-29T22:20:25.239Z,86.73
2022-07-29T22:22:54.191Z,86.96
2022-07-29T22:25:22.959Z,87.10
2022-07-29T22:27:51.678Z,87.16
2022-07-29T22:30:20.660Z,87.13
2022-07-29T22:32:49.467Z,87.03
2022-07-29T22:35:18.330Z,87.27
2022-07-29T22:37:47.125Z,87.27
2022-07-29T22:40:15.865Z,87.07
2022-07-29T22:42:44.701Z,87.32
2022-07-29T22:45:13.417Z,87.40
2022-07-29T22:47:48.028Z,87.44
2022-07-29T22:50:17.812Z,87.46
2022-07-29T22:52:46.838Z,87.48
2022-07-29T22:55:15.848Z,87.50
2022-07-29T22:57:44.594Z,87.65
2022-07-29T23:00:15.602Z,87.68
2022-07-29T23:02:44.320Z,87.74
2022-07-29T23:05:16.547Z,87.81
2022-07-29T23:07:48.413Z,88.03
2022-07-29T23:10:17.232Z,87.91
2022-07-29T23:12:46.170Z,88.00
2022-07-29T23:15:15.044Z,88.15
2022-07-29T23:17:44.111Z,88.21
2022-07-29T23:20:14.969Z,88.31
2022-07-29T23:22:43.843Z,88.46
2022-07-29T23:25:12.708Z,88.36
2022-07-29T23:27:41.816Z,88.41
2022-07-29T23:30:11.996Z,88.33
2022-07-29T23:32:40.917Z,88.60
2022-07-29T23:35:10.740Z,88.69
2022-07-29T23:37:39.138Z,88.55
2022-07-29T23:40:14.253Z,89.04
2022-07-29T23:42:44.082Z,88.96
2022-07-29T23:45:13.711Z,88.98
2022-07-29T23:47:45.593Z,88.98
2022-07-29T23:50:16.191Z,88.94
2022-07-29T23:52:45.161Z,89.06
2022-07-29T23:55:38.180Z,89.24
2022-07-29T23:58:03.663Z,89.20
